sensor_id;sensor_type;location;lat;lon;timestamp;P1;durP1;ratioP1;P2;durP2;ratioP2
48588;SDS011;34369;51.174;6.738;2022-11-11T00:00:37;34.63;;;32.13;;
48588;SDS011;34369;51.174;6.738;2022-11-11T00:03:09;35.73;;;32.93;;
48588;SDS011;34369;51.174;6.738;2022-11-11T00:05:41;36.17;;;33.43;;
48588;SDS011;34369;51.174;6.738;2022-11-11T00:08:13;35.73;;;33.10;;
48588;SDS011;34369;51.174;6.738;2022-11-11T00:10:46;35.83;;;32.87;;
48588;SDS011;34369;51.174;6.738;2022-11-11T00:13:18;34.90;;;32.43;;
48588;SDS011;34369;51.174;6.738;2022-11-11T00:15:54;37.03;;;34.13;;
48588;SDS011;34369;51.174;6.738;2022-11-11T00:18:28;37.60;;;34.80;;
48588;SDS011;34369;51.174;6.738;2022-11-11T00:21:17;35.57;;;32.87;;
48588;SDS011;34369;51.174;6.738;2022-11-11T00:24:21;34.83;;;32.13;;
48588;SDS011;34369;51.174;6.738;2022-11-11T00:27:14;32.60;;;30.30;;
48588;SDS011;34369;51.174;6.738;2022-11-11T00:29:46;35.63;;;32.93;;
48588;SDS011;34369;51.174;6.738;2022-11-11T00:32:23;34.87;;;32.20;;
48588;SDS011;34369;51.174;6.738;2022-11-11T00:34:58;35.07;;;32.53;;
48588;SDS011;34369;51.174;6.738;2022-11-11T00:37:48;34.63;;;32.07;;
48588;SDS011;34369;51.174;6.738;2022-11-11T00:40:20;37.77;;;34.67;;
48588;SDS011;34369;51.174;6.738;2022-11-11T00:42:52;37.10;;;34.27;;
48588;SDS011;34369;51.174;6.738;2022-11-11T00:45:24;35.47;;;32.97;;
48588;SDS011;34369;51.174;6.738;2022-11-11T00:47:58;36.23;;;33.50;;
48588;SDS011;34369;51.174;6.738;2022-11-11T00:50:47;36.10;;;33.30;;
48588;SDS011;34369;51.174;6.738;2022-11-11T00:53:30;35.83;;;33.00;;
48588;SDS011;34369;51.174;6.738;2022-11-11T00:56:04;36.93;;;34.13;;
48588;SDS011;34369;51.174;6.738;2022-11-11T00:58:37;36.87;;;33.90;;
48588;SDS011;34369;51.174;6.738;2022-11-11T01:01:09;37.20;;;34.60;;
48588;SDS011;34369;51.174;6.738;2022-11-11T01:03:43;37.57;;;34.30;;
48588;SDS011;34369;51.174;6.738;2022-11-11T01:06:17;36.92;;;34.03;;
48588;SDS011;34369;51.174;6.738;2022-11-11T01:08:50;38.03;;;34.93;;
48588;SDS011;34369;51.174;6.738;2022-11-11T01:11:22;36.90;;;33.67;;
48588;SDS011;34369;51.174;6.738;2022-11-11T01:13:55;37.27;;;34.37;;
48588;SDS011;34369;51.174;6.738;2022-11-11T01:16:28;37.07;;;34.37;;
48588;SDS011;34369;51.174;6.738;2022-11-11T01:19:02;38.03;;;35.17;;
48588;SDS011;34369;51.174;6.738;2022-11-11T01:21:34;36.07;;;33.47;;
48588;SDS011;34369;51.174;6.738;2022-11-11T01:24:06;35.33;;;32.60;;
48588;SDS011;34369;51.174;6.738;2022-11-11T01:26:39;36.93;;;34.40;;
48588;SDS011;34369;51.174;6.738;2022-11-11T01:29:11;34.27;;;31.67;;
48588;SDS011;34369;51.174;6.738;2022-11-11T01:31:43;37.20;;;34.03;;
48588;SDS011;34369;51.174;6.738;2022-11-11T01:34:20;37.03;;;34.30;;
48588;SDS011;34369;51.174;6.738;2022-11-11T01:36:52;37.33;;;34.43;;
48588;SDS011;34369;51.174;6.738;2022-11-11T01:39:25;36.40;;;33.50;;
48588;SDS011;34369;51.174;6.738;2022-11-11T01:41:57;36.23;;;33.13;;
48588;SDS011;34369;51.174;6.738;2022-11-11T01:44:41;37.83;;;34.93;;
48588;SDS011;34369;51.174;6.738;2022-11-11T01:47:17;36.25;;;33.63;;
48588;SDS011;34369;51.174;6.738;2022-11-11T01:49:53;36.50;;;33.80;;
48588;SDS011;34369;51.174;6.738;2022-11-11T01:52:30;37.73;;;35.03;;
48588;SDS011;34369;51.174;6.738;2022-11-11T01:55:07;38.17;;;35.47;;
48588;SDS011;34369;51.174;6.738;2022-11-11T01:57:44;36.40;;;33.57;;
48588;SDS011;34369;51.174;6.738;2022-11-11T02:00:24;38.00;;;35.20;;
48588;SDS011;34369;51.174;6.738;2022-11-11T02:02:58;37.53;;;34.63;;
48588;SDS011;34369;51.174;6.738;2022-11-11T02:05:37;36.73;;;34.03;;
48588;SDS011;34369;51.174;6.738;2022-11-11T02:08:11;38.73;;;35.93;;
48588;SDS011;34369;51.174;6.738;2022-11-11T02:11:01;37.90;;;35.10;;
48588;SDS011;34369;51.174;6.738;2022-11-11T02:13:38;38.60;;;35.53;;
48588;SDS011;34369;51.174;6.738;2022-11-11T02:16:30;34.60;;;31.90;;
48588;SDS011;34369;51.174;6.738;2022-11-11T02:19:03;39.03;;;35.93;;
48588;SDS011;34369;51.174;6.738;2022-11-11T02:21:39;38.30;;;35.50;;
48588;SDS011;34369;51.174;6.738;2022-11-11T02:24:19;35.90;;;33.37;;
48588;SDS011;34369;51.174;6.738;2022-11-11T02:26:55;38.13;;;35.23;;
48588;SDS011;34369;51.174;6.738;2022-11-11T02:29:29;37.27;;;34.00;;
48588;SDS011;34369;51.174;6.738;2022-11-11T02:32:06;39.10;;;36.20;;
48588;SDS011;34369;51.174;6.738;2022-11-11T02:34:38;37.80;;;35.07;;
48588;SDS011;34369;51.174;6.738;2022-11-11T02:37:10;38.27;;;35.40;;
48588;SDS011;34369;51.174;6.738;2022-11-11T02:39:49;40.33;;;37.15;;
48588;SDS011;34369;51.174;6.738;2022-11-11T02:42:24;39.03;;;36.33;;
48588;SDS011;34369;51.174;6.738;2022-11-11T02:44:57;38.20;;;35.17;;
48588;SDS011;34369;51.174;6.738;2022-11-11T02:47:29;40.23;;;37.03;;
48588;SDS011;34369;51.174;6.738;2022-11-11T02:50:01;39.80;;;36.70;;
48588;SDS011;34369;51.174;6.738;2022-11-11T02:52:34;38.63;;;35.73;;
48588;SDS011;34369;51.174;6.738;2022-11-11T02:55:09;37.43;;;34.57;;
48588;SDS011;34369;51.174;6.738;2022-11-11T02:57:41;38.40;;;35.70;;
48588;SDS011;34369;51.174;6.738;2022-11-11T03:00:16;39.23;;;35.93;;
48588;SDS011;34369;51.174;6.738;2022-11-11T03:02:51;36.33;;;33.60;;
48588;SDS011;34369;51.174;6.738;2022-11-11T03:05:24;37.23;;;34.43;;
48588;SDS011;34369;51.174;6.738;2022-11-11T03:07:58;38.60;;;35.80;;
48588;SDS011;34369;51.174;6.738;2022-11-11T03:10:33;36.53;;;33.63;;
48588;SDS011;34369;51.174;6.738;2022-11-11T03:13:05;39.10;;;36.20;;
48588;SDS011;34369;51.174;6.738;2022-11-11T03:15:38;38.57;;;35.70;;
48588;SDS011;34369;51.174;6.738;2022-11-11T03:18:10;36.83;;;34.27;;
48588;SDS011;34369;51.174;6.738;2022-11-11T03:20:41;39.60;;;36.60;;
48588;SDS011;34369;51.174;6.738;2022-11-11T03:23:33;38.77;;;35.93;;
48588;SDS011;34369;51.174;6.738;2022-11-11T03:26:09;40.57;;;37.37;;
48588;SDS011;34369;51.174;6.738;2022-11-11T03:28:40;39.17;;;36.07;;
48588;SDS011;34369;51.174;6.738;2022-11-11T03:31:12;35.90;;;33.17;;
48588;SDS011;34369;51.174;6.738;2022-11-11T03:33:44;38.00;;;35.20;;
48588;SDS011;34369;51.174;6.738;2022-11-11T03:36:16;37.07;;;34.27;;
48588;SDS011;34369;51.174;6.738;2022-11-11T03:38:48;38.97;;;35.97;;
48588;SDS011;34369;51.174;6.738;2022-11-11T03:41:21;39.03;;;36.17;;
48588;SDS011;34369;51.174;6.738;2022-11-11T03:43:53;36.80;;;34.07;;
48588;SDS011;34369;51.174;6.738;2022-11-11T03:46:25;39.17;;;36.30;;
48588;SDS011;34369;51.174;6.738;2022-11-11T03:48:57;38.37;;;35.70;;
48588;SDS011;34369;51.174;6.738;2022-11-11T03:51:30;38.23;;;35.23;;
48588;SDS011;34369;51.174;6.738;2022-11-11T03:54:02;40.27;;;37.27;;
48588;SDS011;34369;51.174;6.738;2022-11-11T03:56:35;39.63;;;36.67;;
48588;SDS011;34369;51.174;6.738;2022-11-11T03:59:07;39.07;;;36.20;;
48588;SDS011;34369;51.174;6.738;2022-11-11T04:01:39;39.27;;;36.37;;
48588;SDS011;34369;51.174;6.738;2022-11-11T04:04:29;38.70;;;35.90;;
48588;SDS011;34369;51.174;6.738;2022-11-11T04:07:19;40.97;;;37.77;;
48588;SDS011;34369;51.174;6.738;2022-11-11T04:10:09;38.43;;;35.53;;
48588;SDS011;34369;51.174;6.738;2022-11-11T04:13:02;37.80;;;35.00;;
48588;SDS011;34369;51.174;6.738;2022-11-11T04:15:55;39.07;;;36.27;;
48588;SDS011;34369;51.174;6.738;2022-11-11T04:18:36;39.90;;;36.90;;
48588;SDS011;34369;51.174;6.738;2022-11-11T04:21:26;38.43;;;35.63;;
48588;SDS011;34369;51.174;6.738;2022-11-11T04:24:16;37.53;;;34.83;;
48588;SDS011;34369;51.174;6.738;2022-11-11T04:27:08;38.43;;;35.53;;
48588;SDS011;34369;51.174;6.738;2022-11-11T04:29:47;39.10;;;36.17;;
48588;SDS011;34369;51.174;6.738;2022-11-11T04:32:20;37.30;;;34.57;;
48588;SDS011;34369;51.174;6.738;2022-11-11T04:35:12;37.40;;;34.60;;
48588;SDS011;34369;51.174;6.738;2022-11-11T04:37:46;38.17;;;35.37;;
48588;SDS011;34369;51.174;6.738;2022-11-11T04:40:20;37.83;;;35.03;;
48588;SDS011;34369;51.174;6.738;2022-11-11T04:43:10;38.00;;;35.40;;
48588;SDS011;34369;51.174;6.738;2022-11-11T04:45:43;38.77;;;35.87;;
48588;SDS011;34369;51.174;6.738;2022-11-11T04:48:14;38.43;;;35.57;;
48588;SDS011;34369;51.174;6.738;2022-11-11T04:50:47;40.10;;;37.23;;
48588;SDS011;34369;51.174;6.738;2022-11-11T04:53:20;37.67;;;34.63;;
48588;SDS011;34369;51.174;6.738;2022-11-11T04:55:52;40.87;;;37.50;;
48588;SDS011;34369;51.174;6.738;2022-11-11T04:58:43;38.87;;;35.87;;
48588;SDS011;34369;51.174;6.738;2022-11-11T05:01:17;39.50;;;36.80;;
48588;SDS011;34369;51.174;6.738;2022-11-11T05:04:03;38.27;;;35.43;;
48588;SDS011;34369;51.174;6.738;2022-11-11T05:06:35;37.63;;;34.93;;
48588;SDS011;34369;51.174;6.738;2022-11-11T05:09:25;38.90;;;36.00;;
48588;SDS011;34369;51.174;6.738;2022-11-11T05:11:57;38.20;;;35.37;;
48588;SDS011;34369;51.174;6.738;2022-11-11T05:14:30;37.33;;;34.53;;
48588;SDS011;34369;51.174;6.738;2022-11-11T05:17:23;37.17;;;34.43;;
48588;SDS011;34369;51.174;6.738;2022-11-11T05:20:15;38.30;;;35.47;;
48588;SDS011;34369;51.174;6.738;2022-11-11T05:23:03;37.47;;;34.57;;
48588;SDS011;34369;51.174;6.738;2022-11-11T05:25:35;38.33;;;35.40;;
48588;SDS011;34369;51.174;6.738;2022-11-11T05:28:07;38.43;;;35.67;;
48588;SDS011;34369;51.174;6.738;2022-11-11T05:30:39;38.13;;;35.37;;
48588;SDS011;34369;51.174;6.738;2022-11-11T05:33:13;37.30;;;34.70;;
48588;SDS011;34369;51.174;6.738;2022-11-11T05:35:45;37.47;;;34.67;;
48588;SDS011;34369;51.174;6.738;2022-11-11T05:38:17;38.07;;;35.27;;
48588;SDS011;34369;51.174;6.738;2022-11-11T05:40:54;39.20;;;36.30;;
48588;SDS011;34369;51.174;6.738;2022-11-11T05:43:26;36.97;;;34.27;;
48588;SDS011;34369;51.174;6.738;2022-11-11T05:45:58;39.40;;;36.40;;
48588;SDS011;34369;51.174;6.738;2022-11-11T05:48:31;39.17;;;36.37;;
48588;SDS011;34369;51.174;6.738;2022-11-11T05:51:04;39.70;;;36.63;;
48588;SDS011;34369;51.174;6.738;2022-11-11T05:53:56;38.60;;;35.80;;
48588;SDS011;34369;51.174;6.738;2022-11-11T05:56:30;38.57;;;35.63;;
48588;SDS011;34369;51.174;6.738;2022-11-11T05:59:02;37.00;;;34.30;;
48588;SDS011;34369;51.174;6.738;2022-11-11T06:01:35;38.90;;;35.83;;
48588;SDS011;34369;51.174;6.738;2022-11-11T06:06:48;37.57;;;34.77;;
48588;SDS011;34369;51.174;6.738;2022-11-11T06:09:21;36.87;;;34.07;;
48588;SDS011;34369;51.174;6.738;2022-11-11T06:11:53;35.53;;;32.93;;
48588;SDS011;34369;51.174;6.738;2022-11-11T06:14:25;37.37;;;34.50;;
48588;SDS011;34369;51.174;6.738;2022-11-11T06:16:57;37.13;;;34.43;;
48588;SDS011;34369;51.174;6.738;2022-11-11T06:19:31;35.07;;;32.37;;
48588;SDS011;34369;51.174;6.738;2022-11-11T06:22:04;38.43;;;35.57;;
48588;SDS011;34369;51.174;6.738;2022-11-11T06:24:37;38.47;;;35.70;;
48588;SDS011;34369;51.174;6.738;2022-11-11T06:27:10;37.80;;;35.20;;
48588;SDS011;34369;51.174;6.738;2022-11-11T06:29:41;38.10;;;35.37;;
48588;SDS011;34369;51.174;6.738;2022-11-11T06:32:13;39.40;;;36.50;;
48588;SDS011;34369;51.174;6.738;2022-11-11T06:34:47;40.20;;;37.30;;
48588;SDS011;34369;51.174;6.738;2022-11-11T06:37:19;38.07;;;35.23;;
48588;SDS011;34369;51.174;6.738;2022-11-11T06:39:51;37.90;;;35.07;;
48588;SDS011;34369;51.174;6.738;2022-11-11T06:42:24;39.47;;;36.40;;
48588;SDS011;34369;51.174;6.738;2022-11-11T06:44:56;38.57;;;35.70;;
48588;SDS011;34369;51.174;6.738;2022-11-11T06:47:28;40.43;;;37.53;;
48588;SDS011;34369;51.174;6.738;2022-11-11T06:50:04;39.37;;;36.23;;
48588;SDS011;34369;51.174;6.738;2022-11-11T06:52:37;39.30;;;36.27;;
48588;SDS011;34369;51.174;6.738;2022-11-11T06:55:09;38.37;;;35.27;;
48588;SDS011;34369;51.174;6.738;2022-11-11T06:57:42;38.13;;;35.27;;
48588;SDS011;34369;51.174;6.738;2022-11-11T07:00:16;35.97;;;33.20;;
48588;SDS011;34369;51.174;6.738;2022-11-11T07:02:53;38.03;;;35.27;;
48588;SDS011;34369;51.174;6.738;2022-11-11T07:05:27;37.23;;;33.93;;
48588;SDS011;34369;51.174;6.738;2022-11-11T07:08:01;38.47;;;35.57;;
48588;SDS011;34369;51.174;6.738;2022-11-11T07:10:36;37.73;;;34.83;;
48588;SDS011;34369;51.174;6.738;2022-11-11T07:13:10;38.47;;;35.60;;
48588;SDS011;34369;51.174;6.738;2022-11-11T07:15:43;39.63;;;36.47;;
48588;SDS011;34369;51.174;6.738;2022-11-11T07:18:16;39.53;;;36.53;;
48588;SDS011;34369;51.174;6.738;2022-11-11T07:20:50;39.23;;;36.23;;
48588;SDS011;34369;51.174;6.738;2022-11-11T07:23:22;35.63;;;32.80;;
48588;SDS011;34369;51.174;6.738;2022-11-11T07:25:55;37.57;;;34.77;;
48588;SDS011;34369;51.174;6.738;2022-11-11T07:28:28;37.20;;;34.40;;
48588;SDS011;34369;51.174;6.738;2022-11-11T07:31:00;39.10;;;36.03;;
48588;SDS011;34369;51.174;6.738;2022-11-11T07:33:33;37.13;;;34.10;;
48588;SDS011;34369;51.174;6.738;2022-11-11T07:36:07;37.07;;;34.27;;
48588;SDS011;34369;51.174;6.738;2022-11-11T07:38:39;38.97;;;36.07;;
48588;SDS011;34369;51.174;6.738;2022-11-11T07:41:11;36.03;;;33.13;;
48588;SDS011;34369;51.174;6.738;2022-11-11T07:43:43;40.30;;;37.27;;
48588;SDS011;34369;51.174;6.738;2022-11-11T07:46:16;37.40;;;34.70;;
48588;SDS011;34369;51.174;6.738;2022-11-11T07:48:48;37.13;;;34.33;;
48588;SDS011;34369;51.174;6.738;2022-11-11T07:51:22;37.50;;;34.80;;
48588;SDS011;34369;51.174;6.738;2022-11-11T07:53:56;35.33;;;32.63;;
48588;SDS011;34369;51.174;6.738;2022-11-11T07:56:29;36.40;;;33.80;;
48588;SDS011;34369;51.174;6.738;2022-11-11T07:59:02;37.20;;;34.50;;
48588;SDS011;34369;51.174;6.738;2022-11-11T08:01:37;35.90;;;33.10;;
48588;SDS011;34369;51.174;6.738;2022-11-11T08:04:09;37.77;;;34.87;;
48588;SDS011;34369;51.174;6.738;2022-11-11T08:06:43;36.40;;;33.30;;
48588;SDS011;34369;51.174;6.738;2022-11-11T08:09:15;37.03;;;34.23;;
48588;SDS011;34369;51.174;6.738;2022-11-11T08:11:48;36.00;;;33.23;;
48588;SDS011;34369;51.174;6.738;2022-11-11T08:14:37;36.40;;;33.63;;
48588;SDS011;34369;51.174;6.738;2022-11-11T08:17:09;35.87;;;33.00;;
48588;SDS011;34369;51.174;6.738;2022-11-11T08:19:41;35.83;;;33.13;;
48588;SDS011;34369;51.174;6.738;2022-11-11T08:22:15;34.93;;;32.33;;
48588;SDS011;34369;51.174;6.738;2022-11-11T08:24:47;36.23;;;33.33;;
48588;SDS011;34369;51.174;6.738;2022-11-11T08:27:19;36.73;;;33.80;;
48588;SDS011;34369;51.174;6.738;2022-11-11T08:29:51;35.93;;;33.13;;
48588;SDS011;34369;51.174;6.738;2022-11-11T08:32:23;37.07;;;34.10;;
48588;SDS011;34369;51.174;6.738;2022-11-11T08:34:55;38.07;;;35.33;;
48588;SDS011;34369;51.174;6.738;2022-11-11T08:37:29;35.07;;;32.37;;
48588;SDS011;34369;51.174;6.738;2022-11-11T08:40:01;36.27;;;33.50;;
48588;SDS011;34369;51.174;6.738;2022-11-11T08:42:35;34.53;;;32.00;;
48588;SDS011;34369;51.174;6.738;2022-11-11T08:45:07;34.20;;;31.50;;
48588;SDS011;34369;51.174;6.738;2022-11-11T08:47:43;35.43;;;32.63;;
48588;SDS011;34369;51.174;6.738;2022-11-11T08:50:16;36.63;;;33.03;;
48588;SDS011;34369;51.174;6.738;2022-11-11T08:52:50;36.97;;;34.07;;
48588;SDS011;34369;51.174;6.738;2022-11-11T08:55:23;35.87;;;33.13;;
48588;SDS011;34369;51.174;6.738;2022-11-11T08:57:58;36.23;;;33.20;;
48588;SDS011;34369;51.174;6.738;2022-11-11T09:00:34;35.20;;;32.40;;
48588;SDS011;34369;51.174;6.738;2022-11-11T09:03:06;34.53;;;31.60;;
48588;SDS011;34369;51.174;6.738;2022-11-11T09:05:41;35.10;;;32.37;;
48588;SDS011;34369;51.174;6.738;2022-11-11T09:08:17;34.73;;;32.13;;
48588;SDS011;34369;51.174;6.738;2022-11-11T09:10:50;35.07;;;32.27;;
48588;SDS011;34369;51.174;6.738;2022-11-11T09:13:23;34.13;;;31.33;;
48588;SDS011;34369;51.174;6.738;2022-11-11T09:15:55;34.17;;;31.30;;
48588;SDS011;34369;51.174;6.738;2022-11-11T09:18:28;34.83;;;32.03;;
48588;SDS011;34369;51.174;6.738;2022-11-11T09:21:01;34.10;;;31.30;;
48588;SDS011;34369;51.174;6.738;2022-11-11T09:23:35;33.50;;;30.73;;
48588;SDS011;34369;51.174;6.738;2022-11-11T09:26:08;34.07;;;31.27;;
48588;SDS011;34369;51.174;6.738;2022-11-11T09:28:40;34.03;;;31.53;;
48588;SDS011;34369;51.174;6.738;2022-11-11T09:31:12;34.17;;;31.50;;
48588;SDS011;34369;51.174;6.738;2022-11-11T09:33:46;34.93;;;32.23;;
48588;SDS011;34369;51.174;6.738;2022-11-11T09:36:18;32.77;;;30.27;;
48588;SDS011;34369;51.174;6.738;2022-11-11T09:38:55;32.55;;;30.00;;
48588;SDS011;34369;51.174;6.738;2022-11-11T09:41:32;33.27;;;30.57;;
48588;SDS011;34369;51.174;6.738;2022-11-11T09:44:22;34.03;;;31.27;;
48588;SDS011;34369;51.174;6.738;2022-11-11T09:47:13;32.50;;;29.90;;
48588;SDS011;34369;51.174;6.738;2022-11-11T09:49:54;32.17;;;29.53;;
48588;SDS011;34369;51.174;6.738;2022-11-11T09:52:32;32.97;;;29.80;;
48588;SDS011;34369;51.174;6.738;2022-11-11T09:55:14;32.05;;;29.45;;
48588;SDS011;34369;51.174;6.738;2022-11-11T09:57:50;32.60;;;30.10;;
48588;SDS011;34369;51.174;6.738;2022-11-11T10:00:28;32.00;;;29.43;;
48588;SDS011;34369;51.174;6.738;2022-11-11T10:03:06;30.43;;;28.03;;
48588;SDS011;34369;51.174;6.738;2022-11-11T10:05:47;32.28;;;29.63;;
48588;SDS011;34369;51.174;6.738;2022-11-11T10:08:28;31.23;;;28.83;;
48588;SDS011;34369;51.174;6.738;2022-11-11T10:11:10;31.90;;;29.30;;
48588;SDS011;34369;51.174;6.738;2022-11-11T10:13:49;32.47;;;30.00;;
48588;SDS011;34369;51.174;6.738;2022-11-11T10:16:26;32.17;;;29.73;;
48588;SDS011;34369;51.174;6.738;2022-11-11T10:19:08;31.02;;;28.73;;
48588;SDS011;34369;51.174;6.738;2022-11-11T10:21:57;31.42;;;28.92;;
48588;SDS011;34369;51.174;6.738;2022-11-11T10:24:32;31.70;;;28.90;;
48588;SDS011;34369;51.174;6.738;2022-11-11T10:27:13;32.17;;;29.63;;
48588;SDS011;34369;51.174;6.738;2022-11-11T10:29:49;47.67;;;30.42;;
48588;SDS011;34369;51.174;6.738;2022-11-11T10:32:22;30.83;;;28.35;;
48588;SDS011;34369;51.174;6.738;2022-11-11T10:34:59;29.48;;;26.88;;
48588;SDS011;34369;51.174;6.738;2022-11-11T10:37:45;31.07;;;28.57;;
48588;SDS011;34369;51.174;6.738;2022-11-11T10:40:36;30.65;;;28.25;;
48588;SDS011;34369;51.174;6.738;2022-11-11T10:43:18;30.95;;;28.55;;
48588;SDS011;34369;51.174;6.738;2022-11-11T10:45:56;30.38;;;28.02;;
48588;SDS011;34369;51.174;6.738;2022-11-11T10:48:39;30.77;;;28.27;;
48588;SDS011;34369;51.174;6.738;2022-11-11T10:51:19;29.60;;;27.30;;
48588;SDS011;34369;51.174;6.738;2022-11-11T10:53:57;29.85;;;27.55;;
48588;SDS011;34369;51.174;6.738;2022-11-11T10:56:35;30.02;;;27.63;;
48588;SDS011;34369;51.174;6.738;2022-11-11T10:59:16;30.58;;;28.08;;
48588;SDS011;34369;51.174;6.738;2022-11-11T11:01:53;31.38;;;28.88;;
48588;SDS011;34369;51.174;6.738;2022-11-11T11:04:30;29.25;;;26.75;;
48588;SDS011;34369;51.174;6.738;2022-11-11T11:07:12;29.75;;;27.17;;
48588;SDS011;34369;51.174;6.738;2022-11-11T11:09:50;29.20;;;26.80;;
48588;SDS011;34369;51.174;6.738;2022-11-11T11:12:29;29.83;;;27.63;;
48588;SDS011;34369;51.174;6.738;2022-11-11T11:15:09;29.30;;;27.00;;
48588;SDS011;34369;51.174;6.738;2022-11-11T11:17:50;30.52;;;27.85;;
48588;SDS011;34369;51.174;6.738;2022-11-11T11:20:28;30.35;;;27.83;;
48588;SDS011;34369;51.174;6.738;2022-11-11T11:23:00;30.02;;;27.73;;
48588;SDS011;34369;51.174;6.738;2022-11-11T11:25:32;29.27;;;26.98;;
48588;SDS011;34369;51.174;6.738;2022-11-11T11:28:06;28.63;;;26.48;;
48588;SDS011;34369;51.174;6.738;2022-11-11T11:30:42;29.85;;;27.50;;
48588;SDS011;34369;51.174;6.738;2022-11-11T11:33:48;29.30;;;27.08;;
48588;SDS011;34369;51.174;6.738;2022-11-11T11:36:30;28.23;;;25.98;;
48588;SDS011;34369;51.174;6.738;2022-11-11T11:39:02;28.27;;;26.17;;
48588;SDS011;34369;51.174;6.738;2022-11-11T11:41:35;28.23;;;25.92;;
48588;SDS011;34369;51.174;6.738;2022-11-11T11:44:26;27.30;;;25.23;;
48588;SDS011;34369;51.174;6.738;2022-11-11T11:47:09;28.35;;;26.10;;
48588;SDS011;34369;51.174;6.738;2022-11-11T11:53:04;27.60;;;25.52;;
48588;SDS011;34369;51.174;6.738;2022-11-11T11:55:55;27.92;;;25.83;;
48588;SDS011;34369;51.174;6.738;2022-11-11T11:58:39;27.67;;;25.45;;
48588;SDS011;34369;51.174;6.738;2022-11-11T12:01:31;27.67;;;25.55;;
48588;SDS011;34369;51.174;6.738;2022-11-11T12:07:31;27.85;;;25.63;;
48588;SDS011;34369;51.174;6.738;2022-11-11T12:10:23;28.52;;;26.33;;
48588;SDS011;34369;51.174;6.738;2022-11-11T12:13:05;27.83;;;25.75;;
48588;SDS011;34369;51.174;6.738;2022-11-11T12:15:50;27.52;;;25.35;;
48588;SDS011;34369;51.174;6.738;2022-11-11T12:18:34;27.23;;;25.02;;
48588;SDS011;34369;51.174;6.738;2022-11-11T12:21:25;26.55;;;24.35;;
48588;SDS011;34369;51.174;6.738;2022-11-11T12:24:02;27.83;;;25.73;;
48588;SDS011;34369;51.174;6.738;2022-11-11T12:26:46;27.60;;;25.50;;
48588;SDS011;34369;51.174;6.738;2022-11-11T12:29:31;27.67;;;25.55;;
48588;SDS011;34369;51.174;6.738;2022-11-11T12:32:29;26.33;;;24.17;;
48588;SDS011;34369;51.174;6.738;2022-11-11T12:35:19;27.25;;;25.10;;
48588;SDS011;34369;51.174;6.738;2022-11-11T12:38:18;27.00;;;24.95;;
48588;SDS011;34369;51.174;6.738;2022-11-11T12:41:10;27.92;;;25.75;;
48588;SDS011;34369;51.174;6.738;2022-11-11T12:43:55;26.75;;;24.83;;
48588;SDS011;34369;51.174;6.738;2022-11-11T12:46:40;27.73;;;25.42;;
48588;SDS011;34369;51.174;6.738;2022-11-11T12:49:31;27.38;;;25.38;;
48588;SDS011;34369;51.174;6.738;2022-11-11T12:52:28;28.10;;;25.92;;
48588;SDS011;34369;51.174;6.738;2022-11-11T12:55:15;26.95;;;24.85;;
48588;SDS011;34369;51.174;6.738;2022-11-11T12:58:06;27.75;;;25.45;;
48588;SDS011;34369;51.174;6.738;2022-11-11T13:00:50;25.50;;;23.55;;
48588;SDS011;34369;51.174;6.738;2022-11-11T13:03:38;27.58;;;25.58;;
48588;SDS011;34369;51.174;6.738;2022-11-11T13:06:51;26.23;;;24.23;;
48588;SDS011;34369;51.174;6.738;2022-11-11T13:10:00;26.52;;;24.42;;
48588;SDS011;34369;51.174;6.738;2022-11-11T13:12:47;25.90;;;23.90;;
48588;SDS011;34369;51.174;6.738;2022-11-11T13:15:29;27.20;;;24.77;;
48588;SDS011;34369;51.174;6.738;2022-11-11T13:18:07;26.52;;;24.33;;
48588;SDS011;34369;51.174;6.738;2022-11-11T13:20:45;25.52;;;23.63;;
48588;SDS011;34369;51.174;6.738;2022-11-11T13:23:25;26.10;;;24.05;;
48588;SDS011;34369;51.174;6.738;2022-11-11T13:26:01;26.00;;;24.00;;
48588;SDS011;34369;51.174;6.738;2022-11-11T13:28:55;26.40;;;24.50;;
48588;SDS011;34369;51.174;6.738;2022-11-11T13:31:45;25.27;;;23.48;;
48588;SDS011;34369;51.174;6.738;2022-11-11T13:34:18;25.65;;;23.55;;
48588;SDS011;34369;51.174;6.738;2022-11-11T13:36:53;26.05;;;23.90;;
48588;SDS011;34369;51.174;6.738;2022-11-11T13:39:27;25.52;;;23.63;;
48588;SDS011;34369;51.174;6.738;2022-11-11T13:42:05;25.52;;;23.60;;
48588;SDS011;34369;51.174;6.738;2022-11-11T13:47:20;25.77;;;23.90;;
48588;SDS011;34369;51.174;6.738;2022-11-11T13:50:04;25.45;;;23.63;;
48588;SDS011;34369;51.174;6.738;2022-11-11T13:52:51;25.27;;;23.35;;
48588;SDS011;34369;51.174;6.738;2022-11-11T13:55:29;25.42;;;23.55;;
48588;SDS011;34369;51.174;6.738;2022-11-11T13:58:16;24.77;;;22.88;;
48588;SDS011;34369;51.174;6.738;2022-11-11T14:00:56;26.13;;;23.95;;
48588;SDS011;34369;51.174;6.738;2022-11-11T14:12:37;25.40;;;23.50;;
48588;SDS011;34369;51.174;6.738;2022-11-11T14:18:35;26.10;;;24.02;;
48588;SDS011;34369;51.174;6.738;2022-11-11T14:24:21;24.67;;;22.92;;
48588;SDS011;34369;51.174;6.738;2022-11-11T14:26:57;26.02;;;24.10;;
48588;SDS011;34369;51.174;6.738;2022-11-11T14:29:31;25.73;;;23.90;;
48588;SDS011;34369;51.174;6.738;2022-11-11T14:35:18;24.77;;;22.98;;
48588;SDS011;34369;51.174;6.738;2022-11-11T14:38:14;26.60;;;24.63;;
48588;SDS011;34369;51.174;6.738;2022-11-11T14:47:18;25.08;;;23.23;;
48588;SDS011;34369;51.174;6.738;2022-11-11T14:49:57;26.17;;;24.27;;
48588;SDS011;34369;51.174;6.738;2022-11-11T14:52:32;25.38;;;23.42;;
48588;SDS011;34369;51.174;6.738;2022-11-11T14:55:12;26.40;;;24.45;;
48588;SDS011;34369;51.174;6.738;2022-11-11T14:57:50;25.60;;;23.80;;
48588;SDS011;34369;51.174;6.738;2022-11-11T15:00:30;25.98;;;23.77;;
48588;SDS011;34369;51.174;6.738;2022-11-11T15:03:16;25.80;;;23.70;;
48588;SDS011;34369;51.174;6.738;2022-11-11T15:06:03;26.08;;;24.17;;
48588;SDS011;34369;51.174;6.738;2022-11-11T15:08:45;26.80;;;24.60;;
48588;SDS011;34369;51.174;6.738;2022-11-11T15:11:28;26.08;;;24.08;;
48588;SDS011;34369;51.174;6.738;2022-11-11T15:14:24;25.88;;;24.00;;
48588;SDS011;34369;51.174;6.738;2022-11-11T15:17:08;25.58;;;23.77;;
48588;SDS011;34369;51.174;6.738;2022-11-11T15:19:57;26.17;;;24.23;;
48588;SDS011;34369;51.174;6.738;2022-11-11T15:22:50;26.67;;;24.77;;
48588;SDS011;34369;51.174;6.738;2022-11-11T15:25:33;26.65;;;24.58;;
48588;SDS011;34369;51.174;6.738;2022-11-11T15:28:19;26.77;;;24.75;;
48588;SDS011;34369;51.174;6.738;2022-11-11T15:31:10;25.63;;;23.80;;
48588;SDS011;34369;51.174;6.738;2022-11-11T15:33:55;27.42;;;25.17;;
48588;SDS011;34369;51.174;6.738;2022-11-11T15:36:46;25.95;;;23.95;;
48588;SDS011;34369;51.174;6.738;2022-11-11T15:39:35;26.65;;;24.63;;
48588;SDS011;34369;51.174;6.738;2022-11-11T15:42:11;27.30;;;25.33;;
48588;SDS011;34369;51.174;6.738;2022-11-11T15:44:57;26.15;;;24.25;;
48588;SDS011;34369;51.174;6.738;2022-11-11T15:47:33;26.20;;;24.20;;
48588;SDS011;34369;51.174;6.738;2022-11-11T15:50:15;25.65;;;23.75;;
48588;SDS011;34369;51.174;6.738;2022-11-11T15:52:52;28.08;;;25.77;;
48588;SDS011;34369;51.174;6.738;2022-11-11T15:55:29;26.50;;;24.55;;
48588;SDS011;34369;51.174;6.738;2022-11-11T15:58:10;28.17;;;25.87;;
48588;SDS011;34369;51.174;6.738;2022-11-11T16:00:46;26.85;;;24.77;;